sensor_id;sensor_type;location;lat;lon;timestamp;P1;durP1;ratioP1;P2;durP2;ratioP2
22644;SDS011;11489;50.834;6.752;2023-08-24T00:00:38;5.57;;;2.55;;
22644;SDS011;11489;50.834;6.752;2023-08-24T00:03:05;6.43;;;2.83;;
22644;SDS011;11489;50.834;6.752;2023-08-24T00:05:35;6.80;;;2.90;;
22644;SDS011;11489;50.834;6.752;2023-08-24T00:08:05;5.70;;;2.42;;
22644;SDS011;11489;50.834;6.752;2023-08-24T00:10:33;3.80;;;2.10;;
22644;SDS011;11489;50.834;6.752;2023-08-24T00:12:59;6.07;;;2.47;;
22644;SDS011;11489;50.834;6.752;2023-08-24T00:15:24;4.00;;;2.22;;
22644;SDS011;11489;50.834;6.752;2023-08-24T00:17:50;8.57;;;2.92;;
22644;SDS011;11489;50.834;6.752;2023-08-24T00:20:16;9.63;;;2.80;;
22644;SDS011;11489;50.834;6.752;2023-08-24T00:22:42;6.15;;;2.53;;
22644;SDS011;11489;50.834;6.752;2023-08-24T00:25:07;5.35;;;2.67;;
22644;SDS011;11489;50.834;6.752;2023-08-24T00:27:34;6.60;;;2.75;;
22644;SDS011;11489;50.834;6.752;2023-08-24T00:30:02;4.03;;;2.35;;
22644;SDS011;11489;50.834;6.752;2023-08-24T00:32:29;5.55;;;2.45;;
22644;SDS011;11489;50.834;6.752;2023-08-24T00:34:55;4.20;;;2.70;;
22644;SDS011;11489;50.834;6.752;2023-08-24T00:37:21;3.95;;;2.42;;
22644;SDS011;11489;50.834;6.752;2023-08-24T00:39:47;5.07;;;2.53;;
22644;SDS011;11489;50.834;6.752;2023-08-24T00:42:12;5.53;;;2.72;;
22644;SDS011;11489;50.834;6.752;2023-08-24T00:44:40;3.50;;;2.45;;
22644;SDS011;11489;50.834;6.752;2023-08-24T00:47:07;2.90;;;2.42;;
22644;SDS011;11489;50.834;6.752;2023-08-24T00:49:33;8.95;;;2.75;;
22644;SDS011;11489;50.834;6.752;2023-08-24T00:51:59;6.00;;;2.50;;
22644;SDS011;11489;50.834;6.752;2023-08-24T00:54:25;5.30;;;2.45;;
22644;SDS011;11489;50.834;6.752;2023-08-24T00:56:51;6.35;;;2.47;;
22644;SDS011;11489;50.834;6.752;2023-08-24T00:59:18;3.92;;;2.63;;
22644;SDS011;11489;50.834;6.752;2023-08-24T01:01:44;3.55;;;2.28;;
22644;SDS011;11489;50.834;6.752;2023-08-24T01:04:12;3.90;;;2.50;;
22644;SDS011;11489;50.834;6.752;2023-08-24T01:06:38;4.75;;;2.65;;
22644;SDS011;11489;50.834;6.752;2023-08-24T01:09:04;3.35;;;2.58;;
22644;SDS011;11489;50.834;6.752;2023-08-24T01:11:40;3.63;;;2.50;;
22644;SDS011;11489;50.834;6.752;2023-08-24T01:14:20;4.07;;;3.03;;
22644;SDS011;11489;50.834;6.752;2023-08-24T01:16:53;4.40;;;2.85;;
22644;SDS011;11489;50.834;6.752;2023-08-24T01:22:06;5.30;;;2.90;;
22644;SDS011;11489;50.834;6.752;2023-08-24T01:24:47;6.55;;;3.25;;
22644;SDS011;11489;50.834;6.752;2023-08-24T01:27:18;6.93;;;3.00;;
22644;SDS011;11489;50.834;6.752;2023-08-24T01:29:45;7.40;;;3.10;;
22644;SDS011;11489;50.834;6.752;2023-08-24T01:32:11;3.75;;;2.83;;
22644;SDS011;11489;50.834;6.752;2023-08-24T01:34:37;4.18;;;2.67;;
22644;SDS011;11489;50.834;6.752;2023-08-24T01:37:06;3.70;;;2.90;;
22644;SDS011;11489;50.834;6.752;2023-08-24T01:39:45;5.30;;;3.10;;
22644;SDS011;11489;50.834;6.752;2023-08-24T01:42:17;4.65;;;3.10;;
22644;SDS011;11489;50.834;6.752;2023-08-24T01:44:47;4.50;;;3.10;;
22644;SDS011;11489;50.834;6.752;2023-08-24T01:47:16;4.32;;;2.58;;
22644;SDS011;11489;50.834;6.752;2023-08-24T01:49:43;4.00;;;2.78;;
22644;SDS011;11489;50.834;6.752;2023-08-24T01:52:10;5.15;;;3.20;;
22644;SDS011;11489;50.834;6.752;2023-08-24T01:54:36;6.85;;;2.78;;
22644;SDS011;11489;50.834;6.752;2023-08-24T01:57:04;3.72;;;2.80;;
22644;SDS011;11489;50.834;6.752;2023-08-24T01:59:30;8.13;;;3.42;;
22644;SDS011;11489;50.834;6.752;2023-08-24T02:01:56;4.88;;;2.92;;
22644;SDS011;11489;50.834;6.752;2023-08-24T02:04:22;8.02;;;3.10;;
22644;SDS011;11489;50.834;6.752;2023-08-24T02:06:48;4.90;;;2.80;;
22644;SDS011;11489;50.834;6.752;2023-08-24T02:09:13;4.07;;;2.78;;
22644;SDS011;11489;50.834;6.752;2023-08-24T02:11:39;5.32;;;3.25;;
22644;SDS011;11489;50.834;6.752;2023-08-24T02:14:04;5.35;;;2.97;;
22644;SDS011;11489;50.834;6.752;2023-08-24T02:16:30;9.40;;;3.00;;
22644;SDS011;11489;50.834;6.752;2023-08-24T02:18:56;6.03;;;2.95;;
22644;SDS011;11489;50.834;6.752;2023-08-24T02:21:21;3.55;;;3.00;;
22644;SDS011;11489;50.834;6.752;2023-08-24T02:23:47;5.75;;;2.97;;
22644;SDS011;11489;50.834;6.752;2023-08-24T02:26:13;3.92;;;2.88;;
22644;SDS011;11489;50.834;6.752;2023-08-24T02:28:38;5.63;;;2.95;;
22644;SDS011;11489;50.834;6.752;2023-08-24T02:31:04;5.05;;;2.90;;
22644;SDS011;11489;50.834;6.752;2023-08-24T02:33:31;5.72;;;2.80;;
22644;SDS011;11489;50.834;6.752;2023-08-24T02:35:57;5.13;;;2.83;;
22644;SDS011;11489;50.834;6.752;2023-08-24T02:38:23;4.50;;;2.65;;
22644;SDS011;11489;50.834;6.752;2023-08-24T02:40:49;4.57;;;2.90;;
22644;SDS011;11489;50.834;6.752;2023-08-24T02:43:15;5.10;;;2.95;;
22644;SDS011;11489;50.834;6.752;2023-08-24T02:45:40;5.32;;;2.67;;
22644;SDS011;11489;50.834;6.752;2023-08-24T02:48:06;5.05;;;3.03;;
22644;SDS011;11489;50.834;6.752;2023-08-24T02:50:31;5.45;;;2.90;;
22644;SDS011;11489;50.834;6.752;2023-08-24T02:52:57;5.65;;;2.80;;
22644;SDS011;11489;50.834;6.752;2023-08-24T02:55:23;4.20;;;2.70;;
22644;SDS011;11489;50.834;6.752;2023-08-24T02:57:49;5.25;;;3.08;;
22644;SDS011;11489;50.834;6.752;2023-08-24T03:00:15;4.68;;;2.53;;
22644;SDS011;11489;50.834;6.752;2023-08-24T03:02:42;3.88;;;2.58;;
22644;SDS011;11489;50.834;6.752;2023-08-24T03:05:07;4.90;;;3.20;;
22644;SDS011;11489;50.834;6.752;2023-08-24T03:07:33;6.40;;;2.70;;
22644;SDS011;11489;50.834;6.752;2023-08-24T03:09:59;5.03;;;3.10;;
22644;SDS011;11489;50.834;6.752;2023-08-24T03:12:24;3.70;;;2.75;;
22644;SDS011;11489;50.834;6.752;2023-08-24T03:14:53;5.05;;;3.05;;
22644;SDS011;11489;50.834;6.752;2023-08-24T03:17:20;4.07;;;3.08;;
22644;SDS011;11489;50.834;6.752;2023-08-24T03:19:46;3.92;;;2.80;;
22644;SDS011;11489;50.834;6.752;2023-08-24T03:22:11;5.70;;;2.90;;
22644;SDS011;11489;50.834;6.752;2023-08-24T03:24:37;3.92;;;2.67;;
22644;SDS011;11489;50.834;6.752;2023-08-24T03:27:03;5.18;;;2.70;;
22644;SDS011;11489;50.834;6.752;2023-08-24T03:29:28;6.00;;;2.75;;
22644;SDS011;11489;50.834;6.752;2023-08-24T03:31:54;3.30;;;2.45;;
22644;SDS011;11489;50.834;6.752;2023-08-24T03:34:20;4.20;;;2.90;;
22644;SDS011;11489;50.834;6.752;2023-08-24T03:36:46;4.93;;;2.95;;
22644;SDS011;11489;50.834;6.752;2023-08-24T03:39:13;5.28;;;2.85;;
22644;SDS011;11489;50.834;6.752;2023-08-24T03:41:40;4.35;;;2.92;;
22644;SDS011;11489;50.834;6.752;2023-08-24T03:44:06;5.88;;;3.00;;
22644;SDS011;11489;50.834;6.752;2023-08-24T03:46:32;5.18;;;2.83;;
22644;SDS011;11489;50.834;6.752;2023-08-24T03:48:59;5.28;;;3.03;;
22644;SDS011;11489;50.834;6.752;2023-08-24T03:51:24;3.28;;;2.65;;
22644;SDS011;11489;50.834;6.752;2023-08-24T03:53:50;9.23;;;2.97;;
22644;SDS011;11489;50.834;6.752;2023-08-24T03:56:15;3.65;;;2.72;;
22644;SDS011;11489;50.834;6.752;2023-08-24T03:58:41;11.23;;;2.90;;
22644;SDS011;11489;50.834;6.752;2023-08-24T04:01:09;4.45;;;2.85;;
22644;SDS011;11489;50.834;6.752;2023-08-24T04:03:36;4.45;;;2.70;;
22644;SDS011;11489;50.834;6.752;2023-08-24T04:06:01;3.40;;;2.63;;
22644;SDS011;11489;50.834;6.752;2023-08-24T04:08:27;3.75;;;2.60;;
22644;SDS011;11489;50.834;6.752;2023-08-24T04:10:52;4.10;;;2.83;;
22644;SDS011;11489;50.834;6.752;2023-08-24T04:13:19;5.93;;;2.53;;
22644;SDS011;11489;50.834;6.752;2023-08-24T04:15:44;4.03;;;2.60;;
22644;SDS011;11489;50.834;6.752;2023-08-24T04:18:10;3.65;;;2.60;;
22644;SDS011;11489;50.834;6.752;2023-08-24T04:20:36;4.95;;;2.78;;
22644;SDS011;11489;50.834;6.752;2023-08-24T04:23:02;3.55;;;2.55;;
22644;SDS011;11489;50.834;6.752;2023-08-24T04:25:28;4.13;;;2.80;;
22644;SDS011;11489;50.834;6.752;2023-08-24T04:27:54;4.15;;;2.88;;
22644;SDS011;11489;50.834;6.752;2023-08-24T04:30:20;3.92;;;3.00;;
22644;SDS011;11489;50.834;6.752;2023-08-24T04:32:46;4.20;;;3.08;;
22644;SDS011;11489;50.834;6.752;2023-08-24T04:35:12;5.18;;;2.88;;
22644;SDS011;11489;50.834;6.752;2023-08-24T04:37:38;4.18;;;3.20;;
22644;SDS011;11489;50.834;6.752;2023-08-24T04:40:04;6.82;;;3.33;;
22644;SDS011;11489;50.834;6.752;2023-08-24T04:42:32;7.43;;;2.88;;
22644;SDS011;11489;50.834;6.752;2023-08-24T04:44:58;4.63;;;3.03;;
22644;SDS011;11489;50.834;6.752;2023-08-24T04:47:24;7.30;;;3.00;;
22644;SDS011;11489;50.834;6.752;2023-08-24T04:49:49;6.18;;;3.38;;
22644;SDS011;11489;50.834;6.752;2023-08-24T04:52:15;6.45;;;3.38;;
22644;SDS011;11489;50.834;6.752;2023-08-24T04:54:41;4.72;;;3.22;;
22644;SDS011;11489;50.834;6.752;2023-08-24T04:57:06;4.38;;;2.90;;
22644;SDS011;11489;50.834;6.752;2023-08-24T04:59:32;5.65;;;3.05;;
22644;SDS011;11489;50.834;6.752;2023-08-24T05:01:57;4.97;;;3.08;;
22644;SDS011;11489;50.834;6.752;2023-08-24T05:04:24;7.05;;;3.58;;
22644;SDS011;11489;50.834;6.752;2023-08-24T05:06:49;5.70;;;3.35;;
22644;SDS011;11489;50.834;6.752;2023-08-24T05:09:15;10.18;;;3.13;;
22644;SDS011;11489;50.834;6.752;2023-08-24T05:11:41;7.88;;;3.42;;
22644;SDS011;11489;50.834;6.752;2023-08-24T05:14:06;7.05;;;3.40;;
22644;SDS011;11489;50.834;6.752;2023-08-24T05:16:32;10.25;;;3.20;;
22644;SDS011;11489;50.834;6.752;2023-08-24T05:18:58;8.88;;;3.45;;
22644;SDS011;11489;50.834;6.752;2023-08-24T05:21:23;6.90;;;3.38;;
22644;SDS011;11489;50.834;6.752;2023-08-24T05:23:49;5.72;;;3.15;;
22644;SDS011;11489;50.834;6.752;2023-08-24T05:26:15;6.55;;;3.45;;
22644;SDS011;11489;50.834;6.752;2023-08-24T05:28:47;6.00;;;3.28;;
22644;SDS011;11489;50.834;6.752;2023-08-24T05:31:13;5.82;;;3.55;;
22644;SDS011;11489;50.834;6.752;2023-08-24T05:33:38;5.13;;;3.33;;
22644;SDS011;11489;50.834;6.752;2023-08-24T05:36:04;6.07;;;3.28;;
22644;SDS011;11489;50.834;6.752;2023-08-24T05:38:30;3.53;;;3.00;;
22644;SDS011;11489;50.834;6.752;2023-08-24T05:40:55;5.47;;;3.65;;
22644;SDS011;11489;50.834;6.752;2023-08-24T05:43:21;7.53;;;2.92;;
22644;SDS011;11489;50.834;6.752;2023-08-24T05:45:47;4.93;;;3.08;;
22644;SDS011;11489;50.834;6.752;2023-08-24T05:48:13;5.75;;;3.13;;
22644;SDS011;11489;50.834;6.752;2023-08-24T05:50:42;5.50;;;3.38;;
22644;SDS011;11489;50.834;6.752;2023-08-24T05:53:11;6.22;;;3.55;;
22644;SDS011;11489;50.834;6.752;2023-08-24T05:55:37;5.97;;;3.58;;
22644;SDS011;11489;50.834;6.752;2023-08-24T05:58:03;7.90;;;3.58;;
22644;SDS011;11489;50.834;6.752;2023-08-24T06:00:29;4.35;;;3.15;;
22644;SDS011;11489;50.834;6.752;2023-08-24T06:02:55;5.82;;;3.25;;
22644;SDS011;11489;50.834;6.752;2023-08-24T06:05:20;6.05;;;3.40;;
22644;SDS011;11489;50.834;6.752;2023-08-24T06:07:46;9.80;;;3.25;;
22644;SDS011;11489;50.834;6.752;2023-08-24T06:10:13;5.43;;;3.30;;
22644;SDS011;11489;50.834;6.752;2023-08-24T06:12:38;4.65;;;3.53;;
22644;SDS011;11489;50.834;6.752;2023-08-24T06:15:04;8.90;;;3.47;;
22644;SDS011;11489;50.834;6.752;2023-08-24T06:17:30;5.65;;;3.20;;
22644;SDS011;11489;50.834;6.752;2023-08-24T06:19:56;4.68;;;3.55;;
22644;SDS011;11489;50.834;6.752;2023-08-24T06:22:21;4.18;;;3.15;;
22644;SDS011;11489;50.834;6.752;2023-08-24T06:24:47;7.50;;;3.40;;
22644;SDS011;11489;50.834;6.752;2023-08-24T06:27:13;6.53;;;3.33;;
22644;SDS011;11489;50.834;6.752;2023-08-24T06:29:42;11.75;;;3.60;;
22644;SDS011;11489;50.834;6.752;2023-08-24T06:32:08;4.93;;;3.10;;
22644;SDS011;11489;50.834;6.752;2023-08-24T06:34:33;4.18;;;3.42;;
22644;SDS011;11489;50.834;6.752;2023-08-24T06:37:00;4.78;;;3.33;;
22644;SDS011;11489;50.834;6.752;2023-08-24T06:39:28;5.10;;;3.00;;
22644;SDS011;11489;50.834;6.752;2023-08-24T06:41:54;7.72;;;3.38;;
22644;SDS011;11489;50.834;6.752;2023-08-24T06:44:19;6.38;;;3.38;;
22644;SDS011;11489;50.834;6.752;2023-08-24T06:46:45;7.15;;;3.50;;
22644;SDS011;11489;50.834;6.752;2023-08-24T06:49:11;4.53;;;3.30;;
22644;SDS011;11489;50.834;6.752;2023-08-24T06:51:39;5.72;;;3.10;;
22644;SDS011;11489;50.834;6.752;2023-08-24T06:54:04;5.00;;;3.13;;
22644;SDS011;11489;50.834;6.752;2023-08-24T06:56:30;4.43;;;3.10;;
22644;SDS011;11489;50.834;6.752;2023-08-24T06:58:56;4.63;;;3.13;;
22644;SDS011;11489;50.834;6.752;2023-08-24T07:01:21;5.40;;;2.88;;
22644;SDS011;11489;50.834;6.752;2023-08-24T07:03:47;3.72;;;2.90;;
22644;SDS011;11489;50.834;6.752;2023-08-24T07:06:13;4.57;;;3.00;;
22644;SDS011;11489;50.834;6.752;2023-08-24T07:08:38;4.13;;;2.80;;
22644;SDS011;11489;50.834;6.752;2023-08-24T07:11:04;4.07;;;2.70;;
22644;SDS011;11489;50.834;6.752;2023-08-24T07:13:30;4.28;;;2.67;;
22644;SDS011;11489;50.834;6.752;2023-08-24T07:15:55;3.50;;;2.95;;
22644;SDS011;11489;50.834;6.752;2023-08-24T07:18:21;5.35;;;2.75;;
22644;SDS011;11489;50.834;6.752;2023-08-24T07:20:47;6.22;;;3.10;;
22644;SDS011;11489;50.834;6.752;2023-08-24T07:23:13;4.18;;;2.50;;
22644;SDS011;11489;50.834;6.752;2023-08-24T07:25:38;3.95;;;2.80;;
22644;SDS011;11489;50.834;6.752;2023-08-24T07:28:04;5.47;;;2.80;;
22644;SDS011;11489;50.834;6.752;2023-08-24T07:30:31;5.57;;;2.47;;
22644;SDS011;11489;50.834;6.752;2023-08-24T07:32:57;3.33;;;2.70;;
22644;SDS011;11489;50.834;6.752;2023-08-24T07:35:22;5.18;;;2.88;;
22644;SDS011;11489;50.834;6.752;2023-08-24T07:37:51;3.50;;;2.58;;
22644;SDS011;11489;50.834;6.752;2023-08-24T07:40:17;3.78;;;2.83;;
22644;SDS011;11489;50.834;6.752;2023-08-24T07:42:43;3.30;;;2.53;;
22644;SDS011;11489;50.834;6.752;2023-08-24T07:45:16;5.47;;;2.58;;
22644;SDS011;11489;50.834;6.752;2023-08-24T07:47:42;5.40;;;2.55;;
22644;SDS011;11489;50.834;6.752;2023-08-24T07:50:08;4.72;;;2.55;;
22644;SDS011;11489;50.834;6.752;2023-08-24T07:52:36;5.30;;;2.38;;
22644;SDS011;11489;50.834;6.752;2023-08-24T07:55:02;4.35;;;2.60;;
22644;SDS011;11489;50.834;6.752;2023-08-24T07:57:29;5.60;;;2.65;;
22644;SDS011;11489;50.834;6.752;2023-08-24T07:59:57;4.40;;;2.63;;
22644;SDS011;11489;50.834;6.752;2023-08-24T08:02:23;4.75;;;2.70;;
22644;SDS011;11489;50.834;6.752;2023-08-24T08:04:48;4.50;;;2.42;;
22644;SDS011;11489;50.834;6.752;2023-08-24T08:07:14;2.70;;;2.30;;
22644;SDS011;11489;50.834;6.752;2023-08-24T08:09:40;2.92;;;2.33;;
22644;SDS011;11489;50.834;6.752;2023-08-24T08:12:05;5.38;;;2.50;;
22644;SDS011;11489;50.834;6.752;2023-08-24T08:14:31;4.45;;;2.72;;
22644;SDS011;11489;50.834;6.752;2023-08-24T08:16:57;4.40;;;2.50;;
22644;SDS011;11489;50.834;6.752;2023-08-24T08:19:22;4.63;;;2.60;;
22644;SDS011;11489;50.834;6.752;2023-08-24T08:21:50;3.13;;;2.40;;
22644;SDS011;11489;50.834;6.752;2023-08-24T08:24:16;4.90;;;2.58;;
22644;SDS011;11489;50.834;6.752;2023-08-24T08:26:41;4.50;;;2.50;;
22644;SDS011;11489;50.834;6.752;2023-08-24T08:29:07;3.55;;;2.50;;
22644;SDS011;11489;50.834;6.752;2023-08-24T08:31:33;3.15;;;2.40;;
22644;SDS011;11489;50.834;6.752;2023-08-24T08:33:58;3.22;;;2.28;;
22644;SDS011;11489;50.834;6.752;2023-08-24T08:36:24;4.53;;;2.50;;
22644;SDS011;11489;50.834;6.752;2023-08-24T08:38:50;4.00;;;2.55;;
22644;SDS011;11489;50.834;6.752;2023-08-24T08:41:15;2.88;;;2.30;;
22644;SDS011;11489;50.834;6.752;2023-08-24T08:43:45;3.08;;;2.47;;
22644;SDS011;11489;50.834;6.752;2023-08-24T08:46:12;6.90;;;2.70;;
22644;SDS011;11489;50.834;6.752;2023-08-24T08:48:40;3.33;;;2.65;;
22644;SDS011;11489;50.834;6.752;2023-08-24T08:51:07;3.40;;;2.70;;
22644;SDS011;11489;50.834;6.752;2023-08-24T08:53:33;2.95;;;2.15;;
22644;SDS011;11489;50.834;6.752;2023-08-24T08:55:59;7.03;;;2.42;;
22644;SDS011;11489;50.834;6.752;2023-08-24T08:58:29;2.92;;;2.35;;
22644;SDS011;11489;50.834;6.752;2023-08-24T09:00:56;2.30;;;2.10;;
22644;SDS011;11489;50.834;6.752;2023-08-24T09:03:25;2.33;;;1.92;;
22644;SDS011;11489;50.834;6.752;2023-08-24T09:05:53;2.90;;;2.13;;
22644;SDS011;11489;50.834;6.752;2023-08-24T09:08:19;3.22;;;2.22;;
22644;SDS011;11489;50.834;6.752;2023-08-24T09:10:45;2.67;;;2.20;;
22644;SDS011;11489;50.834;6.752;2023-08-24T09:13:11;4.70;;;2.50;;
22644;SDS011;11489;50.834;6.752;2023-08-24T09:15:37;3.70;;;2.33;;
22644;SDS011;11489;50.834;6.752;2023-08-24T09:18:03;5.63;;;2.42;;
22644;SDS011;11489;50.834;6.752;2023-08-24T09:20:29;3.25;;;2.25;;
22644;SDS011;11489;50.834;6.752;2023-08-24T09:22:55;7.07;;;2.30;;
22644;SDS011;11489;50.834;6.752;2023-08-24T09:25:24;2.53;;;2.28;;
22644;SDS011;11489;50.834;6.752;2023-08-24T09:28:03;3.28;;;1.90;;
22644;SDS011;11489;50.834;6.752;2023-08-24T09:30:36;2.40;;;1.92;;
22644;SDS011;11489;50.834;6.752;2023-08-24T09:33:12;2.45;;;2.20;;
22644;SDS011;11489;50.834;6.752;2023-08-24T09:35:38;2.13;;;1.92;;
22644;SDS011;11489;50.834;6.752;2023-08-24T09:38:17;2.85;;;1.80;;
22644;SDS011;11489;50.834;6.752;2023-08-24T09:40:47;2.83;;;2.17;;
22644;SDS011;11489;50.834;6.752;2023-08-24T09:43:16;3.10;;;2.10;;
22644;SDS011;11489;50.834;6.752;2023-08-24T09:45:52;2.80;;;2.17;;
22644;SDS011;11489;50.834;6.752;2023-08-24T09:48:18;4.35;;;2.05;;
22644;SDS011;11489;50.834;6.752;2023-08-24T09:50:45;3.50;;;2.22;;
22644;SDS011;11489;50.834;6.752;2023-08-24T09:53:16;2.40;;;2.00;;
22644;SDS011;11489;50.834;6.752;2023-08-24T09:56:07;3.17;;;1.70;;
22644;SDS011;11489;50.834;6.752;2023-08-24T09:58:33;3.55;;;1.80;;
22644;SDS011;11489;50.834;6.752;2023-08-24T10:00:59;4.15;;;2.10;;
22644;SDS011;11489;50.834;6.752;2023-08-24T10:03:27;3.90;;;2.17;;
22644;SDS011;11489;50.834;6.752;2023-08-24T10:05:57;6.07;;;2.20;;
22644;SDS011;11489;50.834;6.752;2023-08-24T10:08:27;4.00;;;1.83;;
22644;SDS011;11489;50.834;6.752;2023-08-24T10:10:55;2.70;;;2.00;;
22644;SDS011;11489;50.834;6.752;2023-08-24T10:13:26;3.42;;;1.83;;
22644;SDS011;11489;50.834;6.752;2023-08-24T10:15:53;2.60;;;2.10;;
22644;SDS011;11489;50.834;6.752;2023-08-24T10:18:21;3.95;;;1.80;;
22644;SDS011;11489;50.834;6.752;2023-08-24T10:20:49;4.90;;;2.30;;
22644;SDS011;11489;50.834;6.752;2023-08-24T10:23:15;3.60;;;2.15;;
22644;SDS011;11489;50.834;6.752;2023-08-24T10:25:42;2.50;;;1.88;;
22644;SDS011;11489;50.834;6.752;2023-08-24T10:28:09;2.97;;;2.00;;
22644;SDS011;11489;50.834;6.752;2023-08-24T10:30:36;4.53;;;2.25;;
22644;SDS011;11489;50.834;6.752;2023-08-24T10:33:03;3.40;;;2.05;;
22644;SDS011;11489;50.834;6.752;2023-08-24T10:35:30;2.70;;;2.17;;
22644;SDS011;11489;50.834;6.752;2023-08-24T10:37:58;2.25;;;2.05;;
22644;SDS011;11489;50.834;6.752;2023-08-24T10:40:31;4.70;;;1.92;;
22644;SDS011;11489;50.834;6.752;2023-08-24T10:43:09;3.58;;;1.85;;
22644;SDS011;11489;50.834;6.752;2023-08-24T10:48:24;2.97;;;2.03;;
22644;SDS011;11489;50.834;6.752;2023-08-24T10:56:13;2.78;;;1.98;;
22644;SDS011;11489;50.834;6.752;2023-08-24T10:58:41;2.80;;;2.20;;
22644;SDS011;11489;50.834;6.752;2023-08-24T11:01:19;2.70;;;1.70;;
22644;SDS011;11489;50.834;6.752;2023-08-24T11:03:49;4.25;;;1.80;;
22644;SDS011;11489;50.834;6.752;2023-08-24T11:06:21;2.22;;;1.73;;
22644;SDS011;11489;50.834;6.752;2023-08-24T11:08:48;3.45;;;1.90;;
22644;SDS011;11489;50.834;6.752;2023-08-24T11:11:21;3.50;;;2.00;;
22644;SDS011;11489;50.834;6.752;2023-08-24T11:16:42;3.55;;;2.10;;
22644;SDS011;11489;50.834;6.752;2023-08-24T11:19:08;2.90;;;2.10;;
22644;SDS011;11489;50.834;6.752;2023-08-24T11:21:36;3.45;;;1.98;;
22644;SDS011;11489;50.834;6.752;2023-08-24T11:24:04;4.15;;;1.92;;
22644;SDS011;11489;50.834;6.752;2023-08-24T11:26:30;3.45;;;2.05;;
22644;SDS011;11489;50.834;6.752;2023-08-24T11:28:56;4.32;;;1.92;;
22644;SDS011;11489;50.834;6.752;2023-08-24T11:31:26;5.30;;;2.20;;
22644;SDS011;11489;50.834;6.752;2023-08-24T11:33:55;4.80;;;2.28;;
22644;SDS011;11489;50.834;6.752;2023-08-24T11:36:21;5.50;;;2.00;;
22644;SDS011;11489;50.834;6.752;2023-08-24T11:38:48;4.78;;;1.90;;
22644;SDS011;11489;50.834;6.752;2023-08-24T11:41:15;4.72;;;2.10;;
22644;SDS011;11489;50.834;6.752;2023-08-24T11:43:43;2.95;;;1.95;;
22644;SDS011;11489;50.834;6.752;2023-08-24T11:46:10;2.25;;;1.73;;
22644;SDS011;11489;50.834;6.752;2023-08-24T11:48:40;3.35;;;1.70;;
22644;SDS011;11489;50.834;6.752;2023-08-24T11:51:09;4.30;;;2.25;;
22644;SDS011;11489;50.834;6.752;2023-08-24T11:53:41;3.30;;;2.00;;
22644;SDS011;11489;50.834;6.752;2023-08-24T11:56:08;2.55;;;1.80;;
22644;SDS011;11489;50.834;6.752;2023-08-24T11:58:37;3.05;;;1.95;;
22644;SDS011;11489;50.834;6.752;2023-08-24T12:01:04;2.55;;;1.80;;
22644;SDS011;11489;50.834;6.752;2023-08-24T12:03:30;3.67;;;1.67;;
22644;SDS011;11489;50.834;6.752;2023-08-24T12:06:02;2.95;;;1.90;;
22644;SDS011;11489;50.834;6.752;2023-08-24T12:08:37;6.05;;;2.45;;
22644;SDS011;11489;50.834;6.752;2023-08-24T12:11:09;5.65;;;2.25;;
22644;SDS011;11489;50.834;6.752;2023-08-24T12:13:42;4.05;;;2.40;;
22644;SDS011;11489;50.834;6.752;2023-08-24T12:16:09;5.03;;;2.60;;
22644;SDS011;11489;50.834;6.752;2023-08-24T12:18:35;5.13;;;2.30;;
22644;SDS011;11489;50.834;6.752;2023-08-24T12:21:11;4.97;;;2.83;;
22644;SDS011;11489;50.834;6.752;2023-08-24T12:23:38;5.07;;;2.35;;
22644;SDS011;11489;50.834;6.752;2023-08-24T12:26:04;6.50;;;2.20;;
22644;SDS011;11489;50.834;6.752;2023-08-24T12:28:32;4.07;;;2.35;;
22644;SDS011;11489;50.834;6.752;2023-08-24T12:30:59;4.90;;;2.08;;
22644;SDS011;11489;50.834;6.752;2023-08-24T12:33:29;4.72;;;2.05;;
22644;SDS011;11489;50.834;6.752;2023-08-24T12:35:56;4.53;;;1.92;;
22644;SDS011;11489;50.834;6.752;2023-08-24T12:38:24;4.13;;;1.92;;
22644;SDS011;11489;50.834;6.752;2023-08-24T12:40:51;3.00;;;2.33;;
22644;SDS011;11489;50.834;6.752;2023-08-24T12:43:17;4.63;;;2.80;;
22644;SDS011;11489;50.834;6.752;2023-08-24T12:45:43;4.40;;;2.60;;
22644;SDS011;11489;50.834;6.752;2023-08-24T12:48:10;5.95;;;2.60;;
22644;SDS011;11489;50.834;6.752;2023-08-24T12:50:36;4.82;;;2.38;;
22644;SDS011;11489;50.834;6.752;2023-08-24T12:53:03;4.35;;;2.42;;
22644;SDS011;11489;50.834;6.752;2023-08-24T12:55:31;3.03;;;2.22;;
22644;SDS011;11489;50.834;6.752;2023-08-24T12:57:57;3.55;;;2.13;;
22644;SDS011;11489;50.834;6.752;2023-08-24T13:00:23;3.42;;;2.25;;
22644;SDS011;11489;50.834;6.752;2023-08-24T13:02:49;3.28;;;2.45;;
22644;SDS011;11489;50.834;6.752;2023-08-24T13:05:15;4.50;;;2.17;;
22644;SDS011;11489;50.834;6.752;2023-08-24T13:07:41;4.97;;;2.38;;
22644;SDS011;11489;50.834;6.752;2023-08-24T13:10:07;4.72;;;2.22;;
22644;SDS011;11489;50.834;6.752;2023-08-24T13:12:33;3.92;;;2.03;;
22644;SDS011;11489;50.834;6.752;2023-08-24T13:14:59;3.47;;;2.28;;
22644;SDS011;11489;50.834;6.752;2023-08-24T13:17:26;2.97;;;2.15;;
22644;SDS011;11489;50.834;6.752;2023-08-24T13:19:52;3.38;;;2.00;;
22644;SDS011;11489;50.834;6.752;2023-08-24T13:22:18;2.58;;;2.08;;
22644;SDS011;11489;50.834;6.752;2023-08-24T13:24:43;4.18;;;2.20;;
22644;SDS011;11489;50.834;6.752;2023-08-24T13:27:09;6.13;;;2.33;;
22644;SDS011;11489;50.834;6.752;2023-08-24T13:29:39;4.53;;;2.50;;
22644;SDS011;11489;50.834;6.752;2023-08-24T13:32:05;3.35;;;2.17;;
22644;SDS011;11489;50.834;6.752;2023-08-24T13:34:31;3.53;;;2.10;;
22644;SDS011;11489;50.834;6.752;2023-08-24T13:36:57;3.33;;;1.90;;
22644;SDS011;11489;50.834;6.752;2023-08-24T13:39:25;3.75;;;2.40;;
22644;SDS011;11489;50.834;6.752;2023-08-24T13:41:51;3.08;;;2.00;;
22644;SDS011;11489;50.834;6.752;2023-08-24T13:44:16;5.55;;;2.47;;
22644;SDS011;11489;50.834;6.752;2023-08-24T13:46:42;3.33;;;2.20;;
22644;SDS011;11489;50.834;6.752;2023-08-24T13:49:08;3.70;;;2.10;;
22644;SDS011;11489;50.834;6.752;2023-08-24T13:51:33;4.07;;;2.20;;
22644;SDS011;11489;50.834;6.752;2023-08-24T13:53:59;6.10;;;2.10;;
22644;SDS011;11489;50.834;6.752;2023-08-24T13:56:25;4.72;;;1.92;;
22644;SDS011;11489;50.834;6.752;2023-08-24T13:58:50;2.42;;;1.88;;
22644;SDS011;11489;50.834;6.752;2023-08-24T14:01:16;3.65;;;1.70;;
22644;SDS011;11489;50.834;6.752;2023-08-24T14:03:42;4.75;;;2.05;;
22644;SDS011;11489;50.834;6.752;2023-08-24T14:06:08;3.60;;;2.20;;
22644;SDS011;11489;50.834;6.752;2023-08-24T14:08:35;3.83;;;2.40;;
22644;SDS011;11489;50.834;6.752;2023-08-24T14:11:01;3.08;;;2.00;;
22644;SDS011;11489;50.834;6.752;2023-08-24T14:13:28;3.03;;;1.90;;
22644;SDS011;11489;50.834;6.752;2023-08-24T14:15:55;3.47;;;2.10;;
22644;SDS011;11489;50.834;6.752;2023-08-24T14:18:21;4.97;;;2.05;;
22644;SDS011;11489;50.834;6.752;2023-08-24T14:20:47;4.68;;;2.00;;
22644;SDS011;11489;50.834;6.752;2023-08-24T14:23:13;6.15;;;1.95;;
22644;SDS011;11489;50.834;6.752;2023-08-24T14:25:39;3.00;;;2.00;;
22644;SDS011;11489;50.834;6.752;2023-08-24T14:28:04;3.63;;;1.67;;
22644;SDS011;11489;50.834;6.752;2023-08-24T14:30:30;5.95;;;2.33;;
22644;SDS011;11489;50.834;6.752;2023-08-24T14:32:56;4.55;;;1.83;;
22644;SDS011;11489;50.834;6.752;2023-08-24T14:35:21;4.13;;;2.00;;
22644;SDS011;11489;50.834;6.752;2023-08-24T14:37:47;3.72;;;1.90;;
22644;SDS011;11489;50.834;6.752;2023-08-24T14:40:13;5.90;;;2.10;;
22644;SDS011;11489;50.834;6.752;2023-08-24T14:42:41;3.63;;;1.95;;
22644;SDS011;11489;50.834;6.752;2023-08-24T14:45:07;3.20;;;1.88;;
22644;SDS011;11489;50.834;6.752;2023-08-24T14:47:32;5.40;;;2.00;;
22644;SDS011;11489;50.834;6.752;2023-08-24T14:49:58;2.95;;;1.60;;
22644;SDS011;11489;50.834;6.752;2023-08-24T14:52:24;4.97;;;1.65;;
22644;SDS011;11489;50.834;6.752;2023-08-24T14:54:49;4.60;;;1.80;;
22644;SDS011;11489;50.834;6.752;2023-08-24T14:57:15;5.00;;;1.50;;
22644;SDS011;11489;50.834;6.752;2023-08-24T14:59:41;5.25;;;1.77;;